Time;durP1;ratioP1;P1;durP2;ratioP2;P2;SDS_P1;SDS_P2;PMS_P1;PMS_P2;Temp;Humidity;BMP_temperature;BMP_pressure;BME280_temperature;BME280_humidity;BME280_pressure;Samples;Min_cycle;Max_cycle;Signal;HPM_P1;HPM_P2
2023/03/29 00:01:08;;;;;;;5.95;2.70;;;;;;;2.53;52.16;101687.75;4983323;28;20070;-77
2023/03/29 00:03:35;;;;;;;6.05;2.50;;;;;;;2.64;51.85;101693.84;4983928;28;20593;-76
2023/03/29 00:06:04;;;;;;;6.90;2.67;;;;;;;2.77;51.41;101689.63;4976549;28;20057;-78
2023/03/29 00:08:32;;;;;;;6.70;2.88;;;;;;;2.37;52.05;101685.94;4965498;28;20081;-75
2023/03/29 00:10:59;;;;;;;9.07;2.85;;;;;;;2.63;51.54;101679.25;4996191;28;20037;-76
2023/03/29 00:13:26;;;;;;;5.13;2.65;;;;;;;2.19;52.83;101682.38;4968677;28;20042;-76
2023/03/29 00:15:55;;;;;;;6.10;2.70;;;;;;;2.33;52.11;101675.63;4984484;28;20069;-76
2023/03/29 00:18:21;;;;;;;4.97;2.75;;;;;;;2.87;51.14;101660.44;4982619;28;20142;-76
2023/03/29 00:20:53;;;;;;;6.25;2.35;;;;;;;2.83;50.96;101670.75;4985528;28;20225;-77
2023/03/29 00:23:19;;;;;;;5.25;2.90;;;;;;;2.81;51.43;101656.97;4983728;28;20239;-77
2023/03/29 00:25:44;;;;;;;8.43;3.00;;;;;;;2.83;50.96;101655.25;5001204;28;20042;-77
2023/03/29 00:28:10;;;;;;;5.38;3.17;;;;;;;2.93;50.86;101654.44;4978317;28;20045;-74
2023/03/29 00:30:35;;;;;;;3.00;1.42;;;;;;;3.00;50.64;101653.59;4976134;28;20073;-75
2023/03/29 00:33:00;;;;;;;10.57;3.30;;;;;;;2.52;51.81;101649.91;4981293;28;20054;-75
2023/03/29 00:35:26;;;;;;;7.35;2.53;;;;;;;2.60;51.27;101648.25;4984043;28;20054;-75
2023/03/29 00:37:52;;;;;;;7.45;3.10;;;;;;;2.61;51.18;101649.13;4983043;28;20401;-77
2023/03/29 00:40:17;;;;;;;11.50;3.33;;;;;;;2.48;51.26;101648.16;4981388;28;20124;-77
2023/03/29 00:42:45;;;;;;;6.95;2.05;;;;;;;2.74;50.43;101641.44;4984996;28;20663;-79
2023/03/29 00:45:24;;;;;;;8.18;2.88;;;;;;;2.62;50.89;101631.03;4978907;28;20046;-75
2023/03/29 00:47:55;;;;;;;7.18;2.47;;;;;;;2.52;50.91;101626.69;4963881;28;20065;-76
2023/03/29 00:50:35;;;;;;;7.90;2.78;;;;;;;2.45;50.90;101628.38;4980559;28;20042;-76
2023/03/29 00:53:06;;;;;;;6.10;2.33;;;;;;;2.40;50.94;101626.63;4978821;28;20046;-75
2023/03/29 00:55:54;;;;;;;8.17;2.17;;;;;;;2.39;51.17;101627.47;4966415;28;20026;-77
2023/03/29 00:58:48;;;;;;;9.93;2.58;;;;;;;2.26;51.41;101614.47;4982391;28;20347;-76
2023/03/29 01:01:19;;;;;;;6.05;2.92;;;;;;;2.23;51.50;101613.63;4982097;28;20038;-74
2023/03/29 01:03:53;;;;;;;8.13;2.55;;;;;;;2.25;51.59;101609.34;4970186;28;20046;-76
2023/03/29 01:06:23;;;;;;;12.20;3.10;;;;;;;2.08;51.80;101606.63;4978746;28;20476;-76
2023/03/29 01:09:00;;;;;;;8.40;2.67;;;;;;;2.32;51.14;101603.34;4979730;28;20038;-74
2023/03/29 01:11:41;;;;;;;6.78;2.40;;;;;;;2.37;51.09;101593.91;4992661;28;20041;-76
2023/03/29 01:14:17;;;;;;;4.80;2.03;;;;;;;2.41;50.93;101592.22;4996144;28;20089;-76
2023/03/29 01:16:44;;;;;;;6.38;2.38;;;;;;;2.37;50.97;101587.91;4984775;28;20040;-75
2023/03/29 01:19:14;;;;;;;8.82;2.92;;;;;;;2.40;51.07;101590.50;4982863;28;20973;-77
2023/03/29 01:22:00;;;;;;;6.25;2.25;;;;;;;2.35;51.18;101580.16;4987559;28;20117;-75
2023/03/29 01:24:36;;;;;;;9.27;2.20;;;;;;;2.37;51.18;101577.59;4967973;28;20115;-77
2023/03/29 01:27:15;;;;;;;5.22;2.47;;;;;;;2.28;51.27;101574.09;4986847;28;20038;-75
2023/03/29 01:29:46;;;;;;;7.55;2.63;;;;;;;2.26;51.38;101569.78;4985846;28;20049;-74
2023/03/29 01:32:15;;;;;;;4.70;2.53;;;;;;;2.40;51.05;101572.44;4988795;28;20042;-76
2023/03/29 01:35:19;;;;;;;6.60;2.58;;;;;;;2.36;51.12;101566.41;4990867;28;20034;-77
2023/03/29 01:37:56;;;;;;;7.97;2.72;;;;;;;2.40;51.15;101567.28;4959913;28;20046;-76
2023/03/29 01:40:22;;;;;;;5.55;2.40;;;;;;;2.18;51.56;101556.00;4979634;28;20121;-74
2023/03/29 01:43:10;;;;;;;4.05;1.77;;;;;;;2.43;51.01;101554.41;4980621;28;20101;-77
2023/03/29 01:45:45;;;;;;;8.27;2.38;;;;;;;2.36;51.53;101553.50;4982516;28;20038;-74
2023/03/29 01:48:26;;;;;;;7.45;2.97;;;;;;;2.27;51.49;101551.75;4977858;28;20261;-74
2023/03/29 01:51:03;;;;;;;5.15;1.95;;;;;;;2.62;50.81;101555.34;4970724;28;20038;-74
2023/03/29 01:53:38;;;;;;;9.55;2.40;;;;;;;2.65;50.88;101551.06;4967149;28;20415;-74
2023/03/29 01:56:10;;;;;;;6.22;1.88;;;;;;;2.72;50.67;101544.19;4987464;28;20426;-77
2023/03/29 01:58:42;;;;;;;6.57;2.17;;;;;;;2.79;50.48;101533.03;4987382;28;20050;-78
2023/03/29 02:01:10;;;;;;;9.05;2.20;;;;;;;2.80;50.44;101531.31;4973066;28;20069;-75
2023/03/29 02:03:41;;;;;;;4.25;2.05;;;;;;;2.80;50.64;101533.88;4970489;28;20046;-75
2023/03/29 02:06:12;;;;;;;5.22;2.40;;;;;;;2.94;50.56;101525.31;4964505;28;20026;-75
2023/03/29 02:08:41;;;;;;;2.92;2.30;;;;;;;2.90;50.56;101521.00;4954344;28;20410;-75
2023/03/29 02:11:08;;;;;;;7.22;2.05;;;;;;;2.85;50.64;101519.28;4998279;28;20066;-75
2023/03/29 02:13:35;;;;;;;2.83;1.65;;;;;;;2.72;50.83;101514.06;4982198;28;20038;-76
2023/03/29 02:16:07;;;;;;;5.93;1.48;;;;;;;2.98;50.33;101521.03;4985318;28;20048;-75
2023/03/29 02:18:33;;;;;;;3.13;1.52;;;;;;;3.00;50.61;101519.28;5001164;28;20042;-75
2023/03/29 02:20:59;;;;;;;3.22;1.67;;;;;;;2.85;50.60;101509.81;4980050;28;20292;-76
2023/03/29 02:23:44;;;;;;;4.32;1.70;;;;;;;3.00;50.31;101515.84;4990512;28;20046;-77
2023/03/29 02:26:10;;;;;;;6.03;1.33;;;;;;;2.61;51.33;101509.75;4980544;28;20161;-77
2023/03/29 02:28:36;;;;;;;3.67;1.77;;;;;;;3.07;50.36;101502.09;4985528;28;20562;-77
2023/03/29 02:31:06;;;;;;;3.88;1.80;;;;;;;2.91;50.59;101499.50;4984926;28;20099;-74
2023/03/29 02:33:56;;;;;;;3.45;1.83;;;;;;;2.66;51.76;101493.41;4969685;28;20538;-76
2023/03/29 02:36:59;;;;;;;5.32;1.92;;;;;;;2.94;50.92;101499.50;4976085;28;20259;-80
2023/03/29 02:39:31;;;;;;;5.57;1.55;;;;;;;2.87;51.14;101496.91;4943250;28;20132;-73
2023/03/29 02:41:57;;;;;;;;;;;;;;;2.90;50.75;101496.91;5000082;28;20044;-75
2023/03/29 02:44:32;;;;;;;2.55;1.17;;;;;;;2.59;51.87;101499.41;4992723;28;20310;-76
2023/03/29 02:47:03;;;;;;;4.13;1.48;;;;;;;3.19;50.20;101490.06;4995335;28;20092;-77
2023/03/29 02:49:29;;;;;;;3.55;1.65;;;;;;;3.00;50.51;101487.44;4994127;28;20038;-76
2023/03/29 02:51:59;;;;;;;3.92;1.23;;;;;;;2.94;50.96;101480.56;4969023;28;20692;-77
2023/03/29 02:54:30;;;;;;;2.30;1.23;;;;;;;3.22;50.06;101480.59;4988125;28;20076;-80
2023/03/29 02:56:59;;;;;;;3.28;1.55;;;;;;;3.21;50.05;101468.53;4989975;28;20460;-76
2023/03/29 02:59:24;;;;;;;3.90;1.08;;;;;;;3.39;49.68;101456.50;4961075;28;20046;-76
2023/03/29 03:01:51;;;;;;;5.55;1.10;;;;;;;3.21;50.07;101471.97;5000056;28;20048;-76
2023/03/29 03:04:19;;;;;;;5.53;1.40;;;;;;;2.85;51.17;101463.34;4977362;28;20038;-74
2023/03/29 03:06:45;;;;;;;4.28;1.45;;;;;;;2.69;51.01;101464.16;4979852;28;20038;-77
2023/03/29 03:09:12;;;;;;;2.90;1.15;;;;;;;3.23;50.09;101459.06;4986011;28;20458;-79
2023/03/29 03:11:41;;;;;;;5.60;1.30;;;;;;;3.07;50.46;101446.16;4989242;28;20030;-79
2023/03/29 03:14:07;;;;;;;2.97;1.13;;;;;;;2.97;50.89;101447.84;4985368;28;20524;-80
2023/03/29 03:16:33;;;;;;;5.20;1.70;;;;;;;2.91;50.78;101437.53;4970561;28;20029;-79
2023/03/29 03:18:59;;;;;;;4.55;1.63;;;;;;;3.03;50.67;101436.69;5001484;28;20067;-79
2023/03/29 03:21:29;;;;;;;2.97;1.10;;;;;;;2.92;51.06;101428.06;5004353;28;20026;-77
2023/03/29 03:23:54;;;;;;;3.30;1.30;;;;;;;2.94;50.84;101428.94;4985179;28;20368;-76
2023/03/29 03:26:21;;;;;;;3.15;1.05;;;;;;;2.78;51.41;101435.81;4979235;28;20300;-76
2023/03/29 03:28:47;;;;;;;5.32;1.83;;;;;;;3.25;50.04;101426.31;4997436;28;20132;-76
2023/03/29 03:31:33;;;;;;;7.80;1.23;;;;;;;3.28;50.40;101431.50;4985046;28;20498;-77
2023/03/29 03:34:10;;;;;;;2.58;1.27;;;;;;;3.18;50.57;101425.50;4987298;28;20571;-77
2023/03/29 03:36:56;;;;;;;2.47;1.35;;;;;;;3.12;50.70;101423.75;4986582;28;20600;-77
2023/03/29 03:39:21;;;;;;;3.38;1.13;;;;;;;2.96;50.89;101412.56;4983082;28;20050;-77
2023/03/29 03:41:47;;;;;;;5.10;1.27;;;;;;;3.21;50.28;101416.88;4988147;28;20372;-78
2023/03/29 03:44:15;;;;;;;6.88;1.73;;;;;;;3.14;50.72;101414.28;4970041;28;20038;-78
2023/03/29 03:46:41;;;;;;;4.85;1.70;;;;;;;3.01;50.91;101412.56;4986463;28;20030;-77
2023/03/29 03:49:07;;;;;;;2.25;1.23;;;;;;;3.40;49.99;101410.84;5000250;28;20048;-76
2023/03/29 03:51:37;;;;;;;4.90;1.48;;;;;;;3.18;50.61;101410.84;4982160;28;20033;-77
2023/03/29 03:54:03;;;;;;;2.30;1.17;;;;;;;2.97;51.03;101410.84;4980979;28;20042;-77
2023/03/29 03:56:48;;;;;;;3.75;1.30;;;;;;;3.49;49.85;101407.38;4986454;28;20458;-78
2023/03/29 03:59:25;;;;;;;8.07;1.38;;;;;;;2.98;51.34;101412.56;4982214;28;20697;-77
2023/03/29 04:02:07;;;;;;;2.67;1.25;;;;;;;3.17;50.77;101411.69;4983228;28;20228;-77
2023/03/29 04:04:35;;;;;;;4.68;1.80;;;;;;;2.68;51.99;101416.84;4965868;28;20258;-77
2023/03/29 04:07:05;;;;;;;5.25;1.42;;;;;;;3.25;50.72;101405.66;4982336;28;20116;-76
2023/03/29 04:09:43;;;;;;;4.20;2.22;;;;;;;3.07;50.90;101404.81;4987112;28;20029;-76
2023/03/29 04:12:28;;;;;;;4.22;1.58;;;;;;;2.76;51.60;101402.22;4982484;28;20163;-77
2023/03/29 04:14:54;;;;;;;4.32;2.30;;;;;;;2.51;52.65;101409.06;4986060;28;20061;-77
2023/03/29 04:17:21;;;;;;;4.60;2.08;;;;;;;3.00;51.24;101403.09;4968372;28;21887;-77
2023/03/29 04:20:23;;;;;;;3.92;2.25;;;;;;;2.94;51.27;101400.53;4968860;28;20026;-77
2023/03/29 04:22:49;;;;;;;5.68;2.35;;;;;;;2.76;51.84;101402.22;4977203;28;20038;-76
2023/03/29 04:25:15;;;;;;;4.15;2.80;;;;;;;3.26;50.50;101397.91;4980531;28;20034;-76
2023/03/29 04:27:48;;;;;;;5.50;3.00;;;;;;;3.10;50.94;101397.06;4978079;28;20120;-75
2023/03/29 04:30:26;;;;;;;9.25;3.50;;;;;;;2.79;51.70;101395.34;4979142;28;20034;-77
2023/03/29 04:33:17;;;;;;;8.18;3.42;;;;;;;3.16;50.44;101389.31;4970315;28;20038;-73
2023/03/29 04:35:47;;;;;;;7.95;3.60;;;;;;;2.88;51.64;101392.78;4963282;28;20061;-77
2023/03/29 04:38:15;;;;;;;4.20;3.08;;;;;;;3.27;50.39;101388.44;4971932;28;20173;-73
2023/03/29 04:40:42;;;;;;;10.35;3.72;;;;;;;3.12;51.04;101385.00;4961968;28;20104;-76
2023/03/29 04:43:21;;;;;;;6.60;3.72;;;;;;;2.91;51.29;101385.91;4975595;28;20037;-78
2023/03/29 04:45:55;;;;;;;9.38;4.10;;;;;;;3.19;51.17;101386.72;4978858;28;20041;-73
2023/03/29 04:48:53;;;;;;;9.68;3.90;;;;;;;3.47;50.47;101378.97;4976997;28;20151;-70
2023/03/29 04:51:27;;;;;;;8.38;4.55;;;;;;;3.14;50.94;101372.97;4965927;28;20120;-76
2023/03/29 04:53:54;;;;;;;5.55;3.72;;;;;;;3.22;50.67;101369.50;4985868;28;20231;-76
2023/03/29 04:56:21;;;;;;;8.20;4.30;;;;;;;3.62;49.46;101369.44;4978636;28;20022;-71
2023/03/29 04:59:09;;;;;;;14.27;4.57;;;;;;;3.64;49.91;101365.13;4979845;28;20173;-73
2023/03/29 05:01:35;;;;;;;11.55;5.00;;;;;;;3.57;50.04;101356.53;4976853;28;20037;-73
2023/03/29 05:04:02;;;;;;;10.50;4.65;;;;;;;3.27;50.53;101355.72;4966866;28;20133;-76
2023/03/29 05:06:35;;;;;;;9.13;5.13;;;;;;;3.47;50.17;101358.31;4970275;28;20061;-74
2023/03/29 05:09:03;;;;;;;8.95;4.97;;;;;;;3.19;51.19;101357.44;4980383;28;20048;-76
2023/03/29 05:11:39;;;;;;;10.95;5.25;;;;;;;2.84;52.08;101362.63;4971705;28;20029;-76
2023/03/29 05:14:07;;;;;;;8.20;5.50;;;;;;;3.23;51.31;101355.75;4988141;28;20045;-77
2023/03/29 05:16:34;;;;;;;10.10;4.45;;;;;;;3.28;51.08;101359.16;4989492;28;20105;-74
2023/03/29 05:19:00;;;;;;;13.85;5.53;;;;;;;2.84;52.52;101363.50;5000326;28;20565;-73
2023/03/29 05:21:27;;;;;;;7.88;5.15;;;;;;;3.06;52.02;101354.00;4979038;28;20033;-74
2023/03/29 05:23:54;;;;;;;17.10;6.07;;;;;;;3.00;51.85;101358.31;4984037;28;20038;-73
2023/03/29 05:26:52;;;;;;;12.07;5.93;;;;;;;3.19;51.92;101360.88;4950301;28;20630;-71
2023/03/29 05:29:19;;;;;;;15.70;6.90;;;;;;;2.83;52.29;101361.78;4974406;28;20054;-69
2023/03/29 05:31:51;;;;;;;11.85;6.53;;;;;;;3.12;51.90;101361.75;4994825;28;20120;-70
2023/03/29 05:34:17;;;;;;;16.73;6.95;;;;;;;3.09;51.85;101363.47;4994850;28;20117;-73
2023/03/29 05:36:47;;;;;;;12.48;6.32;;;;;;;3.41;50.92;101358.31;4981783;28;20025;-71
2023/03/29 05:39:14;;;;;;;13.82;7.20;;;;;;;3.23;51.76;101359.19;4960966;28;20885;-72
2023/03/29 05:41:40;;;;;;;23.17;8.27;;;;;;;3.09;51.86;101356.63;4961815;28;20056;-71
2023/03/29 05:44:23;;;;;;;19.05;8.07;;;;;;;3.12;52.13;101361.75;4977226;28;20057;-71
2023/03/29 05:46:56;;;;;;;15.68;8.07;;;;;;;3.19;51.49;101360.03;4981882;28;20045;-71
2023/03/29 05:49:22;;;;;;;14.25;7.85;;;;;;;2.47;53.96;101362.63;4980530;28;20042;-72
2023/03/29 05:52:01;;;;;;;13.65;8.02;;;;;;;2.59;53.60;101361.78;4982891;28;20049;-70
2023/03/29 05:54:29;;;;;;;13.32;7.97;;;;;;;3.09;52.20;101353.16;4991297;28;20030;-70
2023/03/29 05:56:55;;;;;;;12.90;8.40;;;;;;;2.90;52.57;101354.91;4998499;28;20033;-71
2023/03/29 05:59:22;;;;;;;17.88;8.57;;;;;;;2.93;52.46;101353.16;4963847;28;20045;-71
2023/03/29 06:01:48;;;;;;;14.85;7.38;;;;;;;2.84;52.67;101357.47;4964965;28;20407;-71
2023/03/29 06:04:17;;;;;;;12.05;7.43;;;;;;;2.97;52.71;101361.78;4979340;28;20064;-70
2023/03/29 06:06:52;;;;;;;14.63;7.97;;;;;;;2.99;52.47;101357.47;4996489;28;20521;-71
2023/03/29 06:09:18;;;;;;;15.07;8.65;;;;;;;3.53;51.37;101355.69;4964860;28;20046;-72
2023/03/29 06:12:00;;;;;;;13.45;6.75;;;;;;;3.44;51.61;101357.44;4997142;28;20057;-73
2023/03/29 06:14:39;;;;;;;13.43;7.78;;;;;;;3.53;51.39;101353.09;5009061;28;20039;-78
2023/03/29 06:17:24;;;;;;;17.15;8.18;;;;;;;2.92;53.33;101360.94;4981922;28;20050;-74
2023/03/29 06:19:52;;;;;;;18.35;7.85;;;;;;;2.68;54.38;101357.47;4980150;28;20091;-74
2023/03/29 06:22:19;;;;;;;19.15;9.02;;;;;;;3.06;53.54;101364.34;4960297;28;20985;-76
2023/03/29 06:24:45;;;;;;;17.30;7.70;;;;;;;3.14;53.08;101362.63;4982375;28;20038;-75
2023/03/29 06:27:21;;;;;;;15.80;8.45;;;;;;;2.91;54.08;101359.19;4965247;28;20125;-74
2023/03/29 06:29:47;;;;;;;15.52;7.65;;;;;;;3.06;53.59;101356.59;4977311;28;20451;-74
2023/03/29 06:32:13;;;;;;;15.48;8.52;;;;;;;2.52;55.75;101358.31;4991937;28;20034;-73
2023/03/29 06:34:54;;;;;;;15.75;8.80;;;;;;;2.96;54.58;101357.50;4993140;28;20038;-73
2023/03/29 06:37:28;;;;;;;18.70;8.73;;;;;;;2.90;54.59;101352.31;4977875;28;20050;-74
2023/03/29 06:40:06;;;;;;;15.02;7.97;;;;;;;3.22;54.03;101354.00;4980546;28;20036;-73
2023/03/29 06:42:43;;;;;;;14.80;8.18;;;;;;;3.49;53.54;101346.25;4979555;28;20038;-72
2023/03/29 06:45:35;;;;;;;13.20;7.22;;;;;;;3.44;53.50;101347.09;4973688;28;20403;-72
2023/03/29 06:48:05;;;;;;;18.92;8.60;;;;;;;3.07;54.57;101345.44;4978928;28;20360;-72
2023/03/29 06:50:31;;;;;;;17.55;9.35;;;;;;;3.09;54.40;101346.28;4961594;28;20038;-71
2023/03/29 06:53:08;;;;;;;18.35;8.38;;;;;;;2.71;56.09;101349.75;4983504;28;20042;-71
2023/03/29 06:55:35;;;;;;;16.38;8.60;;;;;;;3.44;53.82;101354.84;4978374;28;20594;-73
2023/03/29 06:58:19;;;;;;;15.18;7.60;;;;;;;3.11;55.23;101360.06;4977771;28;20045;-74
2023/03/29 07:00:46;;;;;;;18.17;7.50;;;;;;;3.51;53.83;101362.56;4978663;28;20034;-71
2023/03/29 07:03:22;;;;;;;16.27;8.10;;;;;;;3.03;55.54;101359.19;4975228;28;20482;-71
2023/03/29 07:05:50;;;;;;;19.33;9.20;;;;;;;2.87;55.52;101352.34;4979056;28;20100;-73
2023/03/29 07:08:17;;;;;;;17.77;8.52;;;;;;;2.34;56.57;101370.31;4974157;28;20041;-71
2023/03/29 07:10:57;;;;;;;18.00;8.73;;;;;;;2.51;57.07;101370.38;4978847;28;20165;-70
2023/03/29 07:13:52;;;;;;;15.65;7.78;;;;;;;3.20;55.43;101366.91;4960347;28;20050;-71
2023/03/29 07:16:19;;;;;;;15.02;8.40;;;;;;;3.29;55.50;101360.91;4979341;28;20044;-71
2023/03/29 07:18:50;;;;;;;17.77;9.10;;;;;;;3.36;55.20;101367.81;4975054;28;20049;-70
2023/03/29 07:21:34;;;;;;;13.88;8.20;;;;;;;2.82;56.09;101366.94;4990464;28;20048;-71
2023/03/29 07:24:00;;;;;;;15.25;8.50;;;;;;;3.44;55.23;101360.03;4976891;28;20038;-71
2023/03/29 07:26:27;;;;;;;15.23;9.02;;;;;;;3.27;55.50;101362.59;4996604;28;20494;-72
2023/03/29 07:28:53;;;;;;;15.98;9.07;;;;;;;3.41;54.94;101365.22;4990274;28;20490;-73
2023/03/29 07:31:19;;;;;;;11.38;7.43;;;;;;;3.67;54.82;101367.69;4977287;28;20037;-71
2023/03/29 07:33:52;;;;;;;14.95;9.40;;;;;;;3.28;55.44;101357.44;4974879;28;20069;-71
2023/03/29 07:36:18;;;;;;;20.33;8.65;;;;;;;3.57;55.83;101357.38;4976261;28;21421;-71
2023/03/29 07:38:44;;;;;;;19.27;9.60;;;;;;;2.39;57.98;101356.59;4993303;28;20479;-73
2023/03/29 07:41:15;;;;;;;20.23;7.73;;;;;;;3.28;56.92;101360.00;4974525;28;20034;-71
2023/03/29 07:43:50;;;;;;;22.25;10.10;;;;;;;3.22;56.45;101359.16;4966174;28;20064;-71
2023/03/29 07:46:20;;;;;;;16.00;8.43;;;;;;;3.74;55.49;101359.94;4971942;28;20109;-70
2023/03/29 07:48:46;;;;;;;18.90;8.93;;;;;;;3.27;56.31;101357.44;4974441;28;20049;-72
2023/03/29 07:51:14;;;;;;;14.75;8.38;;;;;;;3.10;57.10;101355.75;4947287;28;20038;-73
2023/03/29 07:53:45;;;;;;;16.63;9.80;;;;;;;3.14;56.88;101351.44;4973676;28;20097;-73
2023/03/29 07:56:26;;;;;;;13.38;7.93;;;;;;;3.66;55.34;101350.47;4975365;28;20106;-72
2023/03/29 07:59:11;;;;;;;18.80;9.05;;;;;;;3.83;55.27;101348.69;4975993;28;20041;-73
2023/03/29 08:01:39;;;;;;;14.60;9.65;;;;;;;3.78;55.93;101355.59;4963986;28;20041;-71
2023/03/29 08:04:31;;;;;;;17.83;9.27;;;;;;;4.00;54.76;101362.38;4972756;28;20085;-71
2023/03/29 08:07:20;;;;;;;16.90;8.82;;;;;;;3.85;56.10;101349.56;4972574;28;20100;-71
2023/03/29 08:10:04;;;;;;;21.05;10.27;;;;;;;3.68;56.43;101349.59;4970585;28;20049;-71
2023/03/29 08:12:54;;;;;;;22.58;10.10;;;;;;;4.03;54.95;101351.19;4971913;28;20042;-70
2023/03/29 08:15:26;;;;;;;17.10;9.15;;;;;;;4.35;54.75;101350.13;4972321;28;20029;-72
2023/03/29 08:17:53;;;;;;;18.08;9.68;;;;;;;4.84;53.73;101340.25;4973741;28;21966;-71
2023/03/29 08:20:18;;;;;;;18.58;8.27;;;;;;;4.47;53.61;101342.28;4975109;28;20092;-70
2023/03/29 08:22:47;;;;;;;20.02;7.85;;;;;;;4.04;55.54;101345.13;4977782;28;20151;-74
2023/03/29 08:25:36;;;;;;;17.55;9.40;;;;;;;4.54;54.74;101340.50;4965047;28;20037;-73
2023/03/29 08:28:02;;;;;;;16.88;9.18;;;;;;;4.59;54.34;101343.94;4972909;28;20042;-70
2023/03/29 08:30:42;;;;;;;15.82;8.85;;;;;;;4.51;54.68;101343.13;4995227;28;20041;-71
2023/03/29 08:33:07;;;;;;;20.23;9.73;;;;;;;4.41;54.41;101344.94;4968275;28;20806;-70
2023/03/29 08:35:33;;;;;;;19.13;8.05;;;;;;;4.78;54.37;101344.63;4959226;28;20193;-71
2023/03/29 08:38:11;;;;;;;17.60;9.00;;;;;;;3.56;57.10;101345.34;4970136;28;20050;-69
2023/03/29 08:40:37;;;;;;;14.30;9.73;;;;;;;3.98;56.43;101343.47;4971839;28;20037;-71
2023/03/29 08:43:29;;;;;;;16.60;10.32;;;;;;;3.53;57.56;101340.16;4971980;28;20042;-71
2023/03/29 08:46:54;;;;;;;18.90;8.88;;;;;;;4.52;55.50;101334.47;4969587;28;20153;-71
2023/03/29 08:49:26;;;;;;;16.70;8.93;;;;;;;3.82;56.76;101346.09;4959927;28;20034;-71
2023/03/29 08:51:59;;;;;;;19.25;9.57;;;;;;;4.18;55.90;101345.06;4991728;28;20087;-70
2023/03/29 08:54:34;;;;;;;18.00;9.77;;;;;;;4.66;54.82;101340.44;4979034;28;20037;-70
2023/03/29 08:57:25;;;;;;;22.67;10.32;;;;;;;4.48;55.41;101354.38;4939279;28;20136;-72
2023/03/29 09:00:00;;;;;;;15.15;9.20;;;;;;;4.89;54.62;101348.03;4977899;28;20616;-70
2023/03/29 09:02:30;;;;;;;19.42;9.70;;;;;;;5.09;53.62;101350.44;4987296;28;20113;-71
2023/03/29 09:05:24;;;;;;;17.98;10.85;;;;;;;4.07;56.35;101357.19;4976828;28;20401;-72
2023/03/29 09:08:02;;;;;;;15.43;9.60;;;;;;;4.55;55.78;101355.19;4960779;28;20779;-70
2023/03/29 09:10:44;;;;;;;17.38;9.80;;;;;;;4.11;56.90;101361.50;4987392;28;20150;-71
2023/03/29 09:13:39;;;;;;;17.23;10.50;;;;;;;4.66;55.31;101352.53;4977513;28;20061;-69
2023/03/29 09:16:24;;;;;;;13.65;9.25;;;;;;;4.82;54.70;101342.00;4971915;28;20054;-71
2023/03/29 09:19:15;;;;;;;14.73;9.80;;;;;;;4.69;55.41;101350.75;4975285;28;20053;-70
2023/03/29 09:21:47;;;;;;;16.17;8.47;;;;;;;3.80;57.50;101353.84;4988309;28;20095;-71
2023/03/29 09:24:31;;;;;;;18.67;10.38;;;;;;;4.78;55.74;101345.50;4977175;28;20296;-70
2023/03/29 09:27:10;;;;;;;19.30;9.93;;;;;;;4.87;55.01;101341.97;4990966;28;20065;-70
2023/03/29 09:29:51;;;;;;;21.60;10.05;;;;;;;5.33;54.20;101343.31;4975718;28;20042;-70
2023/03/29 09:32:30;;;;;;;25.17;10.07;;;;;;;5.10;54.40;101349.59;4974104;28;20510;-70
2023/03/29 09:35:22;;;;;;;18.60;10.88;;;;;;;5.15;55.00;101341.75;4991609;28;20076;-71
2023/03/29 09:37:51;;;;;;;18.60;11.18;;;;;;;4.95;55.54;101344.53;4988108;28;20048;-71
2023/03/29 09:40:21;;;;;;;17.40;10.13;;;;;;;5.47;53.84;101336.22;4979986;28;20038;-70
2023/03/29 09:42:57;;;;;;;24.20;10.40;;;;;;;5.22;54.86;101339.09;4989440;28;20562;-69
2023/03/29 09:45:23;;;;;;;16.80;9.38;;;;;;;5.20;55.11;101345.16;4975222;28;20061;-71
2023/03/29 09:47:53;;;;;;;16.35;9.70;;;;;;;5.01;55.46;101339.28;4969670;28;20050;-71
2023/03/29 09:50:25;;;;;;;20.95;10.45;;;;;;;5.75;53.48;101338.47;4996318;28;20257;-71
2023/03/29 09:52:51;;;;;;;15.63;9.40;;;;;;;5.36;54.39;101336.34;4988296;28;20035;-70
2023/03/29 09:55:26;;;;;;;17.73;10.25;;;;;;;5.28;54.63;101332.09;4958264;28;20910;-72
2023/03/29 09:58:24;;;;;;;17.08;9.90;;;;;;;5.54;54.13;101318.88;4964297;28;20045;-70
2023/03/29 10:00:56;;;;;;;15.05;8.85;;;;;;;6.18;53.32;101309.38;4958201;28;20511;-69
2023/03/29 10:03:30;;;;;;;14.13;8.50;;;;;;;6.18;53.44;101306.78;4992781;28;20993;-69
2023/03/29 10:06:19;;;;;;;16.13;9.82;;;;;;;6.67;52.62;101300.84;4985171;28;20038;-69
2023/03/29 10:08:57;;;;;;;15.00;9.00;;;;;;;5.85;53.23;101301.19;4963517;28;20134;-71
2023/03/29 10:11:39;;;;;;;14.98;9.27;;;;;;;6.02;53.74;101296.63;4977019;28;20038;-73
2023/03/29 10:14:17;;;;;;;11.48;8.43;;;;;;;6.63;52.25;101283.59;4992668;28;20167;-72
2023/03/29 10:16:44;;;;;;;15.73;8.68;;;;;;;6.59;51.55;101287.97;4989878;28;20045;-72
2023/03/29 10:19:15;;;;;;;17.38;8.80;;;;;;;6.39;51.77;101280.50;4963864;28;20041;-73
2023/03/29 10:21:41;;;;;;;23.73;8.32;;;;;;;6.58;52.25;101285.44;4975960;28;20220;-74
2023/03/29 10:24:08;;;;;;;16.17;8.57;;;;;;;5.86;53.64;101285.59;4994092;28;20053;-73
2023/03/29 10:26:37;;;;;;;28.88;10.00;;;;;;;6.28;52.68;101290.22;4973315;28;20284;-73
2023/03/29 10:29:06;;;;;;;15.25;9.55;;;;;;;6.84;50.87;101293.63;4980414;28;20045;-73
2023/03/29 10:31:32;;;;;;;15.20;8.38;;;;;;;7.44;49.36;101278.63;4979747;28;20057;-71
2023/03/29 10:34:03;;;;;;;16.45;9.52;;;;;;;7.41;49.63;101289.94;4980997;28;20503;-72
2023/03/29 10:36:29;;;;;;;12.93;8.13;;;;;;;7.56;49.76;101286.22;4963954;28;20446;-70
2023/03/29 10:38:58;;;;;;;15.00;8.70;;;;;;;7.93;48.14;101290.63;4992810;28;20038;-73
2023/03/29 10:41:28;;;;;;;16.17;8.60;;;;;;;7.66;49.10;101289.47;4975964;28;20049;-70
2023/03/29 10:43:54;;;;;;;11.10;8.43;;;;;;;6.73;51.61;101290.38;4992395;28;20045;-73
2023/03/29 10:46:38;;;;;;;17.20;9.85;;;;;;;7.27;50.18;101290.22;4994711;28;20041;-74
2023/03/29 10:49:14;;;;;;;15.88;8.73;;;;;;;6.20;53.36;101299.84;4996584;28;20052;-73
2023/03/29 10:51:44;;;;;;;17.52;8.98;;;;;;;6.95;51.14;101298.63;4978424;28;20153;-72
2023/03/29 10:54:13;;;;;;;18.27;8.95;;;;;;;7.11;51.27;101299.22;4957924;28;20125;-72
2023/03/29 10:56:42;;;;;;;14.75;9.40;;;;;;;6.84;52.10;101295.34;4976177;28;20125;-73
2023/03/29 10:59:37;;;;;;;14.35;8.50;;;;;;;7.37;50.79;101283.09;4975567;28;20590;-73
2023/03/29 11:02:14;;;;;;;13.57;7.97;;;;;;;7.68;50.55;101278.13;4970860;28;20090;-72
2023/03/29 11:04:45;;;;;;;14.20;9.07;;;;;;;7.32;50.24;101272.78;4975065;28;20104;-72
2023/03/29 11:07:41;;;;;;;12.48;8.30;;;;;;;7.20;50.81;101291.25;4973319;28;20088;-73
2023/03/29 11:10:33;;;;;;;14.45;10.07;;;;;;;7.06;51.10;101282.81;4976757;28;20061;-72
2023/03/29 11:13:20;;;;;;;19.45;8.93;;;;;;;7.19;50.82;101284.31;4974607;28;20046;-72
2023/03/29 11:16:12;;;;;;;15.75;8.05;;;;;;;7.64;50.00;101292.09;4978617;28;20092;-73
2023/03/29 11:18:53;;;;;;;14.98;8.88;;;;;;;8.02;49.73;101292.16;4979625;28;20073;-73
2023/03/29 11:21:38;;;;;;;14.80;8.18;;;;;;;7.01;50.94;101297.66;4971952;28;20298;-72
2023/03/29 11:24:32;;;;;;;15.73;8.23;;;;;;;7.61;50.40;101302.56;4981092;28;20037;-72
2023/03/29 11:27:26;;;;;;;14.88;8.32;;;;;;;7.37;50.48;101298.69;4978214;28;20056;-71
2023/03/29 11:30:10;;;;;;;10.90;7.15;;;;;;;7.39;50.78;101291.72;4976063;28;20697;-72
2023/03/29 11:32:47;;;;;;;13.40;8.20;;;;;;;7.02;51.77;101301.94;4977254;28;20072;-71
2023/03/29 11:35:55;;;;;;;12.82;8.30;;;;;;;7.19;51.20;101305.09;4981232;28;20049;-73
2023/03/29 11:38:38;;;;;;;12.95;8.27;;;;;;;7.29;51.04;101303.22;4931274;28;20053;-72
2023/03/29 11:41:14;;;;;;;15.15;8.65;;;;;;;7.13;51.53;101305.22;4980873;28;20041;-72
2023/03/29 11:44:04;;;;;;;12.02;7.57;;;;;;;7.88;50.46;101301.13;4995236;28;20069;-72
2023/03/29 11:46:43;;;;;;;13.82;8.57;;;;;;;7.30;51.86;101292.75;4979549;28;20060;-72
2023/03/29 11:49:09;;;;;;;13.05;8.68;;;;;;;7.80;50.58;101292.66;4991204;28;20041;-72
2023/03/29 11:51:50;;;;;;;13.23;7.63;;;;;;;8.15;49.56;101284.03;4979064;28;20241;-73
2023/03/29 11:54:24;;;;;;;20.75;8.70;;;;;;;7.76;50.88;101279.72;4973384;28;20538;-72
2023/03/29 11:57:27;;;;;;;13.52;7.70;;;;;;;8.14;49.70;101287.53;4995869;28;20034;-72
2023/03/29 12:00:18;;;;;;;15.27;8.15;;;;;;;8.00;50.81;101286.13;4995460;28;20136;-74
2023/03/29 12:02:53;;;;;;;12.13;7.95;;;;;;;8.34;49.93;101283.63;4976087;28;20034;-73